Time;durP1;ratioP1;P1;durP2;ratioP2;P2;SDS_P1;SDS_P2;PMS_P1;PMS_P2;Temp;Humidity;BMP_temperature;BMP_pressure;BME280_temperature;BME280_humidity;BME280_pressure;Samples;Min_cycle;Max_cycle;Signal;HPM_P1;HPM_P2
2024/02/07 00:03:55;;;;;;;;;;;;;;;20.28;38.69;95431.38;10505237;28;2221;-73
2024/02/07 00:08:55;;;;;;;;;;;;;;;20.27;38.42;95436.94;10504399;28;2130;-72
2024/02/07 00:13:55;;;;;;;;;;;;;;;20.23;38.66;95435.91;10503786;28;1903;-73
2024/02/07 00:18:55;;;;;;;;;;;;;;;20.20;39.03;95428.56;10523457;28;2121;-72
2024/02/07 00:23:56;;;;;;;;;;;;;;;20.17;39.09;95418.56;10487294;28;2172;-73
2024/02/07 00:28:56;;;;;;;;;;;;;;;20.12;38.93;95406.25;10486109;28;2111;-72
2024/02/07 00:33:56;;;;;;;;;;;;;;;20.11;37.21;95409.94;10515868;27;2229;-72
2024/02/07 00:38:57;;;;;;;;;;;;;;;20.07;36.22;95398.41;10500460;28;2063;-73
2024/02/07 00:43:57;;;;;;;;;;;;;;;20.04;36.27;95398.97;10503565;28;1973;-73
2024/02/07 00:48:59;;;;;;;;;;;;;;;20.01;36.83;95399.50;10506114;28;2669;-73
2024/02/07 00:53:59;;;;;;;;;;;;;;;20.00;36.42;95381.38;10503828;28;2019;-73
2024/02/07 00:58:59;;;;;;;;;;;;;;;19.96;37.06;95385.63;10519196;27;1999;-71
2024/02/07 01:03:59;;;;;;;;;;;;;;;19.96;35.31;95385.63;10499848;28;2258;-72
2024/02/07 01:09:03;;;;;;;;;;;;;;;19.96;34.98;95385.63;10507703;28;2255;-73
2024/02/07 01:14:03;;;;;;;;;;;;;;;19.94;35.02;95382.50;10516518;27;2296;-72
2024/02/07 01:19:03;;;;;;;;;;;;;;;19.94;34.74;95380.66;10507692;28;2000;-72
2024/02/07 01:24:06;;;;;;;;;;;;;;;19.92;35.69;95368.81;10503908;28;2048;-70
2024/02/07 01:29:06;;;;;;;;;;;;;;;19.91;34.40;95370.66;10504143;28;2633;-72
2024/02/07 01:34:07;;;;;;;;;;;;;;;19.90;34.86;95360.44;10486827;28;2069;-71
2024/02/07 01:39:08;;;;;;;;;;;;;;;19.89;35.77;95348.31;10525862;28;2049;-71
2024/02/07 01:44:10;;;;;;;;;;;;;;;19.88;34.50;95338.88;10512618;28;2079;-71
2024/02/07 01:49:10;;;;;;;;;;;;;;;19.86;34.19;95333.13;10526029;27;2221;-71
2024/02/07 01:54:10;;;;;;;;;;;;;;;19.85;34.38;95336.78;10525293;28;2190;-72
2024/02/07 01:59:11;;;;;;;;;;;;;;;19.83;34.24;95334.44;10509748;28;2083;-72
2024/02/07 02:04:12;;;;;;;;;;;;;;;19.83;34.06;95326.56;10512986;28;2122;-73
2024/02/07 02:09:13;;;;;;;;;;;;;;;19.80;34.44;95313.19;10514518;28;2229;-72
2024/02/07 02:14:13;;;;;;;;;;;;;;;19.80;34.39;95303.47;10509875;28;2644;-71
2024/02/07 02:19:17;;;;;;;;;;;;;;;19.79;34.46;95301.09;10515033;28;2160;-72
2024/02/07 02:24:44;;;;;;;;;;;;;;;19.77;34.08;95288.22;10509708;28;2098;-73
2024/02/07 02:29:53;;;;;;;;;;;;;;;19.76;34.63;95280.63;10506611;28;2416;-73
2024/02/07 02:34:53;;;;;;;;;;;;;;;19.74;34.48;95288.00;10503667;28;2059;-71
2024/02/07 02:39:54;;;;;;;;;;;;;;;19.74;34.24;95277.50;10521459;27;2031;-73
2024/02/07 02:44:54;;;;;;;;;;;;;;;19.73;34.16;95275.91;10489884;28;2143;-73
2024/02/07 02:49:54;;;;;;;;;;;;;;;19.72;34.43;95277.00;10523608;28;2097;-73
2024/02/07 02:54:56;;;;;;;;;;;;;;;19.70;34.42;95285.13;10494113;28;2463;-73
2024/02/07 02:59:56;;;;;;;;;;;;;;;19.70;34.36;95276.47;10509201;28;2084;-73
2024/02/07 03:04:57;;;;;;;;;;;;;;;19.69;34.57;95277.53;10524779;27;2302;-71
2024/02/07 03:09:58;;;;;;;;;;;;;;;19.67;34.18;95271.78;10523580;27;2137;-73
2024/02/07 03:14:59;;;;;;;;;;;;;;;19.66;34.54;95259.69;10523234;27;2147;-74
2024/02/07 03:19:59;;;;;;;;;;;;;;;19.65;34.18;95247.59;10520921;27;1979;-72
2024/02/07 03:24:59;;;;;;;;;;;;;;;19.63;34.34;95240.00;10511861;28;2107;-69
2024/02/07 03:29:59;;;;;;;;;;;;;;;19.62;34.25;95232.41;10508281;28;2539;-72
2024/02/07 03:35:00;;;;;;;;;;;;;;;19.61;34.10;95233.44;10509365;28;2214;-70
2024/02/07 03:40:00;;;;;;;;;;;;;;;19.59;34.30;95227.69;10506685;28;2475;-70
2024/02/07 03:45:03;;;;;;;;;;;;;;;19.59;34.55;95210.06;10508586;28;2069;-73
2024/02/07 03:50:05;;;;;;;;;;;;;;;19.57;34.26;95211.41;10513347;28;2091;-72
2024/02/07 03:55:06;;;;;;;;;;;;;;;19.56;35.53;95201.97;10508293;28;2164;-73
2024/02/07 04:00:13;;;;;;;;;;;;;;;19.56;36.87;95199.34;10489944;28;2054;-70
2024/02/07 04:05:13;;;;;;;;;;;;;;;19.55;36.92;95197.75;10489027;28;2002;-72
2024/02/07 04:10:18;;;;;;;;;;;;;;;19.51;36.88;95199.38;10509307;28;2020;-72
2024/02/07 05:19:07;;;;;;;;;;;;;;;19.31;37.58;95135.44;10494952;28;2196;-71
2024/02/07 05:24:10;;;;;;;;;;;;;;;19.38;37.60;95135.91;10502431;28;2118;-71
2024/02/07 05:29:15;;;;;;;;;;;;;;;19.43;37.27;95114.81;10516118;27;2036;-70
2024/02/07 05:34:15;;;;;;;;;;;;;;;19.52;36.64;95116.81;10518124;27;2116;-71
2024/02/07 05:39:16;;;;;;;;;;;;;;;19.55;36.04;95137.28;10504342;28;2205;-70
2024/02/07 05:44:18;;;;;;;;;;;;;;;19.58;35.01;95132.25;10501694;28;2055;-69
2024/02/07 05:49:19;;;;;;;;;;;;;;;19.62;36.15;95138.50;10502322;28;2176;-70
2024/02/07 05:54:19;;;;;;;;;;;;;;;19.69;36.75;95127.66;10504158;28;2066;-69
2024/02/07 05:59:19;;;;;;;;;;;;;;;19.72;36.33;95132.38;10503157;28;2090;-70
2024/02/07 06:04:20;;;;;;;;;;;;;;;19.77;36.48;95129.66;10515188;28;2293;-69
2024/02/07 06:09:20;;;;;;;;;;;;;;;19.77;36.76;95122.56;10505033;28;2164;-69
2024/02/07 06:14:20;;;;;;;;;;;;;;;19.81;37.57;95110.41;10502318;28;2086;-70
2024/02/07 06:19:21;;;;;;;;;;;;;;;19.80;37.56;95114.09;10496910;28;2288;-63
2024/02/07 06:24:21;;;;;;;;;;;;;;;19.87;37.72;95116.38;10515339;28;2001;-68
2024/02/07 06:29:21;;;;;;;;;;;;;;;19.85;37.88;95118.50;10511158;28;2044;-68
2024/02/07 06:34:22;;;;;;;;;;;;;;;19.88;37.21;95110.06;10494614;28;1990;-69
2024/02/07 06:39:24;;;;;;;;;;;;;;;19.91;36.95;95112.09;10486435;28;2067;-69
2024/02/07 06:44:24;;;;;;;;;;;;;;;19.91;37.32;95117.34;10504711;28;2102;-68
2024/02/07 06:49:25;;;;;;;;;;;;;;;19.94;37.54;95114.97;10496357;28;2076;-66
2024/02/07 06:54:25;;;;;;;;;;;;;;;19.96;37.68;95119.94;10489599;28;2291;-63
2024/02/07 06:59:25;;;;;;;;;;;;;;;19.94;37.92;95114.97;10506395;28;1906;-64
2024/02/07 07:04:25;;;;;;;;;;;;;;;19.98;38.34;95121.22;10506031;28;2146;-62
2024/02/07 07:09:26;;;;;;;;;;;;;;;20.00;38.27;95113.81;10491199;28;2100;-67
2024/02/07 07:14:26;;;;;;;;;;;;;;;20.01;38.96;95128.53;10519032;27;2326;-68
2024/02/07 07:19:26;;;;;;;;;;;;;;;19.99;38.77;95128.03;10522694;28;2220;-67
2024/02/07 07:24:27;;;;;;;;;;;;;;;20.01;38.57;95131.16;10510929;28;2055;-72
2024/02/07 07:29:27;;;;;;;;;;;;;;;19.98;38.92;95107.28;10506905;28;2028;-75
2024/02/07 07:34:27;;;;;;;;;;;;;;;20.17;36.70;95113.31;10504736;28;2142;-75
2024/02/07 07:39:27;;;;;;;;;;;;;;;20.13;35.28;95105.19;10509079;28;2083;-70
2024/02/07 07:44:28;;;;;;;;;;;;;;;20.22;34.79;95102.75;10503561;28;2112;-69
2024/02/07 07:49:28;;;;;;;;;;;;;;;20.25;35.07;95108.22;10506626;28;2237;-68
2024/02/07 07:54:28;;;;;;;;;;;;;;;20.28;34.50;95098.94;10518300;27;2107;-69
2024/02/07 07:59:28;;;;;;;;;;;;;;;20.25;34.72;95096.91;10507636;28;1958;-70
2024/02/07 08:04:29;;;;;;;;;;;;;;;20.34;34.03;95102.31;10509115;28;2079;-71
2024/02/07 08:09:29;;;;;;;;;;;;;;;20.39;34.00;95095.09;10505294;28;2231;-71
2024/02/07 08:14:29;;;;;;;;;;;;;;;20.39;33.63;95100.38;10501507;28;2048;-70
2024/02/07 08:19:29;;;;;;;;;;;;;;;20.42;33.81;95088.50;10507747;28;2096;-71
2024/02/07 08:24:30;;;;;;;;;;;;;;;20.30;35.12;95081.03;10504287;28;2107;-70
2024/02/07 08:29:30;;;;;;;;;;;;;;;20.26;35.74;95099.25;10504302;28;2111;-69
2024/02/07 08:34:30;;;;;;;;;;;;;;;20.24;36.84;95084.81;10504233;28;2316;-71
2024/02/07 08:39:31;;;;;;;;;;;;;;;20.21;38.09;95095.91;10503840;28;2289;-71
2024/02/07 08:44:32;;;;;;;;;;;;;;;20.24;37.55;95096.13;10500010;28;2095;-66
2024/02/07 08:49:32;;;;;;;;;;;;;;;20.25;37.37;95079.28;10512318;28;2223;-66
2024/02/07 08:54:34;;;;;;;;;;;;;;;20.24;37.04;95085.59;10534311;27;2040;-67
2024/02/07 08:59:34;;;;;;;;;;;;;;;20.24;36.50;95076.91;10511227;28;2052;-66
2024/02/07 09:04:34;;;;;;;;;;;;;;;20.21;37.23;95091.44;10513496;28;2051;-66
2024/02/07 09:09:35;;;;;;;;;;;;;;;20.26;37.24;95078.19;10524167;28;2063;-68
2024/02/07 09:14:36;;;;;;;;;;;;;;;20.24;38.30;95080.34;10496345;28;1975;-66
2024/02/07 09:19:36;;;;;;;;;;;;;;;20.22;38.53;95073.78;10514684;28;2012;-67
2024/02/07 09:24:36;;;;;;;;;;;;;;;20.23;38.02;95070.09;10500351;28;2140;-66
2024/02/07 09:29:36;;;;;;;;;;;;;;;20.20;37.44;95055.66;10514964;28;2233;-66
2024/02/07 09:34:41;;;;;;;;;;;;;;;20.24;37.94;95055.84;10515829;28;2047;-66
2024/02/07 09:39:41;;;;;;;;;;;;;;;20.23;38.35;95049.84;10531615;28;2104;-67
2024/02/07 09:44:45;;;;;;;;;;;;;;;20.26;37.81;95035.28;10516520;28;2732;-67
2024/02/07 09:49:46;;;;;;;;;;;;;;;20.26;37.53;95035.28;10513798;28;2060;-66
2024/02/07 09:54:47;;;;;;;;;;;;;;;20.27;38.06;95031.63;10513847;28;2293;-66
2024/02/07 09:59:47;;;;;;;;;;;;;;;20.29;37.51;95016.31;10534617;28;2181;-66
2024/02/07 10:04:51;;;;;;;;;;;;;;;20.25;37.54;95016.13;10521705;28;2119;-67
2024/02/07 10:09:52;;;;;;;;;;;;;;;20.32;37.93;95020.97;10524839;28;2079;-68
2024/02/07 10:14:52;;;;;;;;;;;;;;;20.32;38.21;95015.72;10505555;28;2245;-69
2024/02/07 10:19:53;;;;;;;;;;;;;;;20.30;38.03;94986.28;10519296;28;1991;-67
2024/02/07 10:24:53;;;;;;;;;;;;;;;20.30;38.32;95012.59;10518159;28;2039;-67
2024/02/07 10:29:54;;;;;;;;;;;;;;;20.27;37.65;94992.94;10514661;28;2095;-67
2024/02/07 10:34:54;;;;;;;;;;;;;;;20.30;37.10;94988.16;10499727;28;2570;-68
2024/02/07 10:40:01;;;;;;;;;;;;;;;20.27;38.00;95002.66;10496858;28;2125;-70
2024/02/07 10:45:11;;;;;;;;;;;;;;;20.30;38.29;94977.63;10500364;28;1990;-70
2024/02/07 10:50:11;;;;;;;;;;;;;;;20.32;37.71;94984.13;10512647;28;2075;-70
2024/02/07 10:55:12;;;;;;;;;;;;;;;20.30;37.90;94988.91;10505575;28;2106;-70
2024/02/07 11:00:12;;;;;;;;;;;;;;;20.32;38.07;94976.25;10495052;28;2099;-70
2024/02/07 11:05:13;;;;;;;;;;;;;;;20.32;37.45;94973.59;10498944;28;2092;-69
2024/02/07 11:10:13;;;;;;;;;;;;;;;20.31;36.91;94937.84;10519748;28;1981;-69
2024/02/07 11:15:13;;;;;;;;;;;;;;;20.27;36.84;94947.41;10515860;28;2606;-70
2024/02/07 11:20:13;;;;;;;;;;;;;;;20.31;37.51;94940.47;10502971;28;2136;-68
2024/02/07 11:25:16;;;;;;;;;;;;;;;20.41;38.43;94927.13;10529461;28;2072;-65
2024/02/07 11:30:17;;;;;;;;;;;;;;;20.50;36.79;94933.28;10515327;28;2401;-66
2024/02/07 11:35:19;;;;;;;;;;;;;;;20.61;34.52;94924.09;10518142;27;2158;-67
2024/02/07 11:40:23;;;;;;;;;;;;;;;20.54;35.75;94928.22;10487864;28;2082;-66
2024/02/07 11:45:23;;;;;;;;;;;;;;;20.64;34.49;94922.75;10486911;28;2147;-67
2024/02/07 11:50:23;;;;;;;;;;;;;;;20.63;35.04;94929.84;10505746;28;2016;-67
2024/02/07 11:55:24;;;;;;;;;;;;;;;20.69;34.18;94909.50;10519954;28;2392;-67
2024/02/07 12:00:24;;;;;;;;;;;;;;;20.66;35.81;94902.94;10520458;27;2124;-67
2024/02/07 12:05:25;;;;;;;;;;;;;;;20.76;34.84;94889.56;10487292;28;2267;-67
2024/02/07 12:10:25;;;;;;;;;;;;;;;20.77;33.72;94885.84;10503554;28;2079;-69
2024/02/07 12:15:27;;;;;;;;;;;;;;;20.72;34.33;94882.56;10503336;28;2063;-68
2024/02/07 12:20:28;;;;;;;;;;;;;;;20.79;34.74;94883.69;10502182;28;1977;-65
2024/02/07 12:25:28;;;;;;;;;;;;;;;20.74;35.84;94864.59;10524119;28;2123;-67
2024/02/07 12:30:29;;;;;;;;;;;;;;;20.68;36.46;94849.97;10520424;28;2164;-67
2024/02/07 12:35:29;;;;;;;;;;;;;;;20.67;37.24;94851.84;10508311;28;2183;-66
2024/02/07 12:40:30;;;;;;;;;;;;;;;20.66;37.61;94831.84;10500195;28;2043;-67
2024/02/07 12:45:31;;;;;;;;;;;;;;;20.63;36.98;94835.06;10502730;28;2174;-66
2024/02/07 12:50:31;;;;;;;;;;;;;;;20.60;37.71;94827.78;10479235;28;2104;-67
2024/02/07 12:55:31;;;;;;;;;;;;;;;20.67;37.99;94824.75;10504464;28;2107;-67
2024/02/07 13:00:32;;;;;;;;;;;;;;;20.64;37.75;94823.47;10497887;28;2094;-67
2024/02/07 13:05:32;;;;;;;;;;;;;;;20.74;35.68;94822.47;10503286;28;2035;-66
2024/02/07 13:10:32;;;;;;;;;;;;;;;20.70;35.15;94821.50;10501251;28;2193;-67
2024/02/07 13:15:33;;;;;;;;;;;;;;;20.63;34.61;94808.72;10502216;28;2217;-67
2024/02/07 13:20:33;;;;;;;;;;;;;;;20.67;34.90;94806.31;10492065;28;1973;-66
2024/02/07 13:25:34;;;;;;;;;;;;;;;20.63;34.75;94798.19;10512715;28;2162;-67
2024/02/07 13:30:34;;;;;;;;;;;;;;;20.61;34.90;94802.97;10516415;28;2139;-67
2024/02/07 13:35:34;;;;;;;;;;;;;;;20.63;34.32;94800.84;10499972;28;2493;-66
2024/02/07 13:40:35;;;;;;;;;;;;;;;20.61;34.86;94791.69;10500018;28;2160;-66
2024/02/07 13:45:35;;;;;;;;;;;;;;;20.58;35.51;94782.53;10484380;28;2370;-67
2024/02/07 13:50:35;;;;;;;;;;;;;;;20.60;34.17;94769.84;10483427;28;2063;-67
2024/02/07 13:55:35;;;;;;;;;;;;;;;20.52;36.17;94769.75;10484173;28;2087;-67
2024/02/07 14:00:36;;;;;;;;;;;;;;;20.45;35.46;94778.06;10513049;28;2055;-67
2024/02/07 14:05:36;;;;;;;;;;;;;;;20.41;35.42;94761.31;10502526;28;2103;-66
2024/02/07 14:10:36;;;;;;;;;;;;;;;20.40;35.83;94754.50;10510765;28;2060;-67
2024/02/07 14:15:36;;;;;;;;;;;;;;;20.41;35.02;94750.78;10499725;28;2139;-66
2024/02/07 14:20:37;;;;;;;;;;;;;;;20.43;35.09;94740.72;10499880;28;2530;-67
2024/02/07 14:25:37;;;;;;;;;;;;;;;20.42;34.87;94743.66;10494072;28;2039;-66
2024/02/07 14:30:38;;;;;;;;;;;;;;;20.42;35.85;94746.28;10498985;28;2094;-66
2024/02/07 14:35:38;;;;;;;;;;;;;;;20.39;35.17;94750.28;10501191;28;2043;-66
2024/02/07 14:40:38;;;;;;;;;;;;;;;20.39;34.54;94746.88;10499889;28;2032;-66
2024/02/07 14:45:39;;;;;;;;;;;;;;;20.38;34.66;94748.72;10503668;28;2065;-66
2024/02/07 14:50:39;;;;;;;;;;;;;;;20.38;35.39;94748.72;10489572;28;2047;-66
2024/02/07 14:55:41;;;;;;;;;;;;;;;20.39;35.70;94750.28;10487840;28;2081;-65
2024/02/07 15:00:41;;;;;;;;;;;;;;;20.39;34.13;94752.91;10503360;28;2148;-65
2024/02/07 15:05:41;;;;;;;;;;;;;;;20.47;34.79;94754.06;10506916;28;2230;-65
2024/02/07 15:10:42;;;;;;;;;;;;;;;20.46;35.69;94742.00;10502023;28;2024;-65
2024/02/07 15:15:43;;;;;;;;;;;;;;;20.49;36.12;94728.22;10499554;28;2224;-65
2024/02/07 15:20:43;;;;;;;;;;;;;;;20.52;36.42;94720.53;10491078;28;2006;-66
2024/02/07 15:25:49;;;;;;;;;;;;;;;20.55;36.89;94719.91;10503873;28;2020;-66
2024/02/07 15:30:53;;;;;;;;;;;;;;;20.50;36.85;94712.16;10505660;28;2011;-65
2024/02/07 15:35:54;;;;;;;;;;;;;;;20.50;35.28;94716.63;10504872;28;2079;-65
2024/02/07 15:40:55;;;;;;;;;;;;;;;20.47;36.13;94714.56;10486107;28;2040;-67
2024/02/07 15:45:55;;;;;;;;;;;;;;;20.49;34.63;94710.56;10502168;28;2283;-65
2024/02/07 15:50:56;;;;;;;;;;;;;;;20.50;35.31;94695.56;10506967;28;1988;-66
2024/02/07 15:55:57;;;;;;;;;;;;;;;20.53;35.54;94705.50;10503344;28;2197;-66
2024/02/07 16:00:58;;;;;;;;;;;;;;;20.55;35.29;94698.84;10500598;28;2075;-67
2024/02/07 16:05:59;;;;;;;;;;;;;;;20.60;35.31;94700.59;10491123;28;2004;-68
2024/02/07 16:10:59;;;;;;;;;;;;;;;20.57;34.94;94703.81;10504680;28;2000;-67
2024/02/07 16:15:59;;;;;;;;;;;;;;;20.60;34.98;94711.91;10503333;28;2497;-67
2024/02/07 16:21:00;;;;;;;;;;;;;;;20.62;34.66;94707.13;10503144;28;2192;-67
2024/02/07 16:26:00;;;;;;;;;;;;;;;20.61;34.60;94695.03;10501649;28;2362;-68
2024/02/07 16:31:07;;;;;;;;;;;;;;;20.67;34.10;94693.06;10484229;28;2234;-66
2024/02/07 16:36:08;;;;;;;;;;;;;;;20.82;35.62;94690.06;10504105;28;2018;-67
2024/02/07 16:41:09;;;;;;;;;;;;;;;20.77;36.41;94674.41;10501337;28;2075;-69
2024/02/07 16:46:09;;;;;;;;;;;;;;;20.75;36.19;94682.56;10503299;28;2038;-67
2024/02/07 16:51:09;;;;;;;;;;;;;;;20.72;36.31;94680.56;10503476;28;2145;-65
2024/02/07 16:56:15;;;;;;;;;;;;;;;20.70;36.43;94674.81;10505612;28;2075;-67
2024/02/07 17:01:18;;;;;;;;;;;;;;;20.67;36.67;94677.28;10506499;28;2059;-67
2024/02/07 17:06:19;;;;;;;;;;;;;;;20.66;37.06;94673.88;10519704;28;2297;-67
2024/02/07 17:11:19;;;;;;;;;;;;;;;20.62;37.28;94678.16;10485494;28;3113;-67
2024/02/07 17:16:20;;;;;;;;;;;;;;;20.61;35.88;94676.59;10485580;28;2185;-66
2024/02/07 17:21:20;;;;;;;;;;;;;;;20.65;34.97;94684.69;10508354;28;2274;-69
2024/02/07 17:26:20;;;;;;;;;;;;;;;20.64;34.95;94676.00;10503756;28;2122;-67
2024/02/07 17:31:22;;;;;;;;;;;;;;;20.59;34.85;94678.75;10517139;28;2131;-66
2024/02/07 17:36:22;;;;;;;;;;;;;;;20.60;34.59;94675.06;10505312;28;2172;-66
2024/02/07 17:41:22;;;;;;;;;;;;;;;20.60;34.07;94674.28;10503702;28;2106;-66
2024/02/07 17:46:23;;;;;;;;;;;;;;;20.61;35.21;94666.06;10488269;28;2243;-66
2024/02/07 17:51:25;;;;;;;;;;;;;;;20.60;34.95;94664.53;10504227;28;2039;-66
2024/02/07 17:56:25;;;;;;;;;;;;;;;20.59;35.77;94656.91;10515830;28;2092;-66
2024/02/07 18:01:25;;;;;;;;;;;;;;;20.58;35.46;94650.88;10516014;28;2401;-67
2024/02/07 18:06:26;;;;;;;;;;;;;;;20.72;35.13;94646.31;10502343;28;1948;-67
2024/02/07 18:11:28;;;;;;;;;;;;;;;20.81;35.75;94638.47;10502773;28;2123;-67
2024/02/07 18:16:29;;;;;;;;;;;;;;;20.77;36.97;94640.91;10505523;28;2060;-67
2024/02/07 18:21:29;;;;;;;;;;;;;;;20.79;36.90;94619.56;10498323;28;2040;-67
2024/02/07 18:26:29;;;;;;;;;;;;;;;20.72;37.64;94620.00;10510218;28;1999;-66
2024/02/07 18:31:29;;;;;;;;;;;;;;;20.70;36.15;94627.41;10511086;28;2217;-66
2024/02/07 18:36:30;;;;;;;;;;;;;;;20.66;35.49;94621.19;10488307;28;2069;-66
2024/02/07 18:41:31;;;;;;;;;;;;;;;20.69;35.53;94617.19;10485593;28;2172;-67
2024/02/07 18:46:32;;;;;;;;;;;;;;;20.74;35.50;94615.19;10507738;28;2238;-67
2024/02/07 18:51:33;;;;;;;;;;;;;;;20.77;34.91;94611.94;10510393;28;1945;-67
2024/02/07 18:56:33;;;;;;;;;;;;;;;20.79;34.85;94614.31;10523448;27;2129;-67
2024/02/07 19:01:35;;;;;;;;;;;;;;;20.97;34.31;94608.81;10508611;28;2195;-67
2024/02/07 19:06:36;;;;;;;;;;;;;;;20.99;34.19;94611.94;10507677;28;2019;-67
2024/02/07 19:11:36;;;;;;;;;;;;;;;21.02;34.75;94592.91;10523163;27;2221;-67
2024/02/07 19:16:36;;;;;;;;;;;;;;;21.04;34.14;94595.25;10504474;28;2075;-67
2024/02/07 19:21:37;;;;;;;;;;;;;;;20.99;33.83;94598.75;10476757;28;2346;-68
2024/02/07 19:26:37;;;;;;;;;;;;;;;21.13;33.38;94577.59;10507951;28;2000;-67
2024/02/07 19:31:37;;;;;;;;;;;;;;;21.10;34.38;94574.81;10491166;28;2390;-64
2024/02/07 19:36:37;;;;;;;;;;;;;;;21.16;33.82;94578.84;10508819;28;2394;-65
2024/02/07 19:41:38;;;;;;;;;;;;;;;21.15;33.56;94579.91;10506632;28;2098;-61
2024/02/07 19:46:38;;;;;;;;;;;;;;;21.22;33.12;94582.91;10505119;28;2122;-65
2024/02/07 19:51:38;;;;;;;;;;;;;;;21.30;33.06;94567.13;10508484;28;2021;-63
2024/02/07 19:56:38;;;;;;;;;;;;;;;21.31;32.75;94567.91;10508279;28;2040;-65
2024/02/07 20:01:39;;;;;;;;;;;;;;;21.32;32.56;94564.19;10507273;28;2122;-65
2024/02/07 20:06:39;;;;;;;;;;;;;;;21.33;32.83;94563.84;10505461;28;2000;-64
2024/02/07 20:11:39;;;;;;;;;;;;;;;21.35;33.08;94568.84;10506350;28;2079;-65
2024/02/07 20:16:41;;;;;;;;;;;;;;;21.38;32.04;94563.72;10507547;28;2012;-65
2024/02/07 20:21:42;;;;;;;;;;;;;;;21.35;32.32;94564.34;10505596;28;2079;-65
2024/02/07 20:26:42;;;;;;;;;;;;;;;21.39;32.29;94569.78;10504651;28;2134;-65
2024/02/07 20:31:44;;;;;;;;;;;;;;;21.46;31.98;94578.00;10502124;28;2212;-66
2024/02/07 20:36:44;;;;;;;;;;;;;;;21.49;32.65;94572.13;10499471;28;2091;-69
2024/02/07 20:41:45;;;;;;;;;;;;;;;21.45;32.70;94558.78;10502338;28;2064;-70
2024/02/07 20:46:45;;;;;;;;;;;;;;;21.43;33.38;94554.91;10472229;28;2118;-69
2024/02/07 20:51:46;;;;;;;;;;;;;;;21.44;33.24;94551.19;10506829;28;2087;-70
2024/02/07 20:56:47;;;;;;;;;;;;;;;21.42;33.51;94555.97;10516157;28;2810;-70
2024/02/07 21:01:49;;;;;;;;;;;;;;;21.43;32.85;94558.31;10502888;28;2100;-71
2024/02/07 21:06:50;;;;;;;;;;;;;;;21.37;35.46;94546.34;10502291;28;2278;-71
2024/02/07 21:11:52;;;;;;;;;;;;;;;21.33;35.71;94548.03;10502801;28;2563;-71
2024/02/07 21:16:52;;;;;;;;;;;;;;;21.34;34.57;94540.91;10502780;28;2060;-71
2024/02/07 21:21:52;;;;;;;;;;;;;;;21.31;35.64;94554.72;10510145;28;2074;-71
2024/02/07 21:26:57;;;;;;;;;;;;;;;21.22;35.49;94541.53;10503548;28;2134;-69
2024/02/07 21:32:00;;;;;;;;;;;;;;;21.22;35.30;94544.16;10503826;28;2067;-69
2024/02/07 21:37:03;;;;;;;;;;;;;;;21.16;35.10;94542.75;10502737;28;2305;-71
2024/02/07 21:42:04;;;;;;;;;;;;;;;21.09;36.45;94534.50;10470047;28;2116;-72
2024/02/07 21:47:04;;;;;;;;;;;;;;;21.05;36.62;94536.19;10518125;28;2117;-71
2024/02/07 21:52:05;;;;;;;;;;;;;;;21.03;36.05;94546.25;10510604;28;2056;-71
2024/02/07 21:57:05;;;;;;;;;;;;;;;20.97;35.75;94552.72;10492780;28;2040;-70
2024/02/07 22:02:06;;;;;;;;;;;;;;;20.92;35.82;94544.94;10511279;28;2060;-70
2024/02/07 22:07:06;;;;;;;;;;;;;;;20.85;35.94;94549.88;10526769;27;2370;-71
2024/02/07 22:12:06;;;;;;;;;;;;;;;20.78;36.14;94539.78;10508795;28;1977;-70
2024/02/07 22:17:06;;;;;;;;;;;;;;;20.72;35.59;94530.47;10496212;28;2111;-70
2024/02/07 22:22:07;;;;;;;;;;;;;;;20.66;36.33;94550.09;10509682;28;2278;-70
2024/02/07 22:27:07;;;;;;;;;;;;;;;20.62;36.76;94551.78;10492407;28;2390;-70
2024/02/07 22:32:08;;;;;;;;;;;;;;;20.61;36.86;94542.31;10508614;28;2222;-70
2024/02/07 22:37:13;;;;;;;;;;;;;;;20.58;36.94;94523.72;10505305;28;2297;-70
2024/02/07 22:42:13;;;;;;;;;;;;;;;20.55;36.58;94517.19;10499587;28;2045;-70
2024/02/07 22:47:14;;;;;;;;;;;;;;;20.51;37.05;94523.38;10508559;28;2323;-70
2024/02/07 22:52:14;;;;;;;;;;;;;;;20.48;36.76;94511.59;10510084;28;2107;-70
2024/02/07 22:57:14;;;;;;;;;;;;;;;20.44;37.26;94518.56;10504527;28;2126;-70
2024/02/07 23:02:14;;;;;;;;;;;;;;;20.42;36.73;94523.34;10507304;28;2187;-71
2024/02/07 23:07:15;;;;;;;;;;;;;;;20.42;35.87;94525.19;10491604;28;2350;-70
2024/02/07 23:12:16;;;;;;;;;;;;;;;20.38;36.36;94524.25;10507300;28;2037;-70
2024/02/07 23:17:16;;;;;;;;;;;;;;;20.35;36.77;94525.63;10509878;28;2025;-70
2024/02/07 23:22:16;;;;;;;;;;;;;;;20.32;36.88;94538.59;10526702;27;2055;-70
2024/02/07 23:27:17;;;;;;;;;;;;;;;20.30;36.08;94530.25;10507241;28;2185;-70
2024/02/07 23:32:17;;;;;;;;;;;;;;;20.28;36.29;94535.78;10509353;28;2279;-70
2024/02/07 23:37:17;;;;;;;;;;;;;;;20.26;36.42;94540.56;10507396;28;2051;-70
2024/02/07 23:42:17;;;;;;;;;;;;;;;20.23;36.18;94533.28;10522065;27;2181;-71
2024/02/07 23:47:18;;;;;;;;;;;;;;;20.22;36.37;94529.09;10489954;28;2225;-70
2024/02/07 23:52:18;;;;;;;;;;;;;;;20.21;36.20;94530.19;10522267;28;2083;-71
2024/02/07 23:57:19;;;;;;;;;;;;;;;20.16;36.66;94528.41;10506288;28;2380;-70
